KJCT/JCT METAR and TAF weather

Enter ICAO airport designator
Station Type Date Time Source
KJCT METAR 2020/11/28 19:51 UTC NOAA

KJCT 281951Z AUTO 32009KT 5SM -RA BKN011 OVC020 09/07 A3013 RMK AO2 RAE02B27 SLP183 P0001 T00940067


Station Type Date Time Source
KJCT Decoded METAR 2020/11/28 19:51 UTC NOAA

KIMBLE COUNTY AIRPORT, TX, United States (KJCT) 30-31N 099-46W 523M
Nov 28, 2020 - 02:51 PM EST / 2020.11.28 1951 UTC
Wind: from the NW (320 degrees) at 10 MPH (9 KT):0
Visibility: 5 mile(s):0
Sky conditions: overcast
Weather: light rain
Precipitation last hour: 0.01 inches
Temperature: 48.9 F (9.4 C)
Dew Point: 44.1 F (6.7 C)
Relative Humidity: 83%
Pressure (altimeter): 30.13 in. Hg (1020 hPa)
ob: KJCT 281951Z AUTO 32009KT 5SM -RA BKN011 OVC020 09/07 A3013 RMK AO2 RAE02B27 SLP183 P0001 T00940067
cycle: 20

Station Type Date Time Source
KJCT TAF 2020/11/28 18:51 UTC NOAA

TAF KJCT 281748Z 2818/2918 03008KT P6SM VCSH OVC006
FM290200 34006KT P6SM OVC008
FM290800 34007KT 4SM BR SCT015
FM291500 33005KT P6SM SKC

Example: see airport list